Time;durP1;ratioP1;P1;durP2;ratioP2;P2;SDS_P1;SDS_P2;PMS_P1;PMS_P2;Temp;Humidity;BMP_temperature;BMP_pressure;BME280_temperature;BME280_humidity;BME280_pressure;Samples;Min_cycle;Max_cycle;Signal;HPM_P1;HPM_P2
2022/05/27 00:01:15;;;;;;;2.50;1.00;;;13.30;99.90;;;12.91;96.03;97834.69;4965252;28;20045;-38
2022/05/27 00:03:41;;;;;;;3.40;1.15;;;13.20;99.90;;;12.84;96.75;97833.19;4967323;28;20030;-39
2022/05/27 00:06:07;;;;;;;2.20;1.02;;;13.10;99.90;;;12.79;96.90;97828.97;4976249;28;20045;-38
2022/05/27 00:08:33;;;;;;;1.67;0.90;;;13.10;99.90;;;12.77;97.38;97832.56;4973017;28;20057;-38
2022/05/27 00:11:00;;;;;;;1.83;1.05;;;13.00;99.90;;;12.69;97.58;97830.22;4973035;28;20265;-38
2022/05/27 00:13:28;;;;;;;2.75;1.23;;;13.00;99.90;;;12.68;97.68;97833.78;4974131;28;20038;-38
2022/05/27 00:15:54;;;;;;;2.15;1.10;;;13.00;99.90;;;12.65;97.72;97826.00;4965377;28;20109;-38
2022/05/27 00:18:20;;;;;;;1.75;0.88;;;12.90;99.90;;;12.63;97.94;97830.44;4969838;28;20041;-38
2022/05/27 00:20:47;;;;;;;1.27;0.95;;;12.90;99.90;;;12.60;97.62;97831.44;4970239;28;20077;-38
2022/05/27 00:23:15;;;;;;;1.38;1.00;;;12.90;99.90;;;12.61;97.43;97832.28;4968351;28;20137;-38
2022/05/27 00:25:41;;;;;;;2.55;0.93;;;12.90;99.90;;;12.54;97.89;97822.88;4960578;28;20034;-38
2022/05/27 00:28:08;;;;;;;2.58;1.10;;;12.90;99.90;;;12.51;98.14;97820.34;4967321;28;20038;-38
2022/05/27 00:30:35;;;;;;;1.60;1.45;;;12.90;99.90;;;12.49;98.39;97823.06;4968446;28;20049;-38
2022/05/27 00:33:04;;;;;;;3.47;0.85;;;12.80;99.90;;;12.46;98.62;97824.97;4968411;28;20042;-38
2022/05/27 00:35:30;;;;;;;1.13;0.95;;;12.80;99.90;;;12.42;98.74;97824.22;4967338;28;20034;-39
2022/05/27 00:37:56;;;;;;;2.47;1.27;;;12.70;99.90;;;12.39;99.05;97822.53;4976814;28;20113;-38
2022/05/27 00:40:25;;;;;;;2.38;1.13;;;12.70;99.90;;;12.31;99.52;97816.69;4968505;28;20050;-38
2022/05/27 00:42:51;;;;;;;2.30;1.00;;;12.70;99.90;;;12.34;99.71;97821.84;4968723;28;22707;-38
2022/05/27 00:45:23;;;;;;;1.48;1.00;;;12.70;99.90;;;12.31;99.78;97821.97;4970517;28;20034;-38
2022/05/27 00:47:54;;;;;;;1.40;0.93;;;12.60;99.90;;;12.32;99.51;97815.75;4968370;28;20035;-38
2022/05/27 00:50:25;;;;;;;1.67;1.10;;;12.60;99.90;;;12.31;99.68;97811.38;4952359;28;20096;-39
2022/05/27 00:52:52;;;;;;;1.73;1.00;;;12.60;99.90;;;12.31;99.65;97815.78;4953594;28;20056;-38
2022/05/27 00:55:26;;;;;;;2.22;1.10;;;12.70;99.90;;;12.27;100.00;97804.47;4970323;28;20038;-38
2022/05/27 00:57:56;;;;;;;2.17;1.00;;;12.60;99.90;;;12.23;100.00;97801.06;4973318;28;20035;-38
2022/05/27 01:00:25;;;;;;;1.77;1.00;;;12.60;99.90;;;12.15;100.00;97795.22;4977617;28;20098;-38
2022/05/27 01:02:54;;;;;;;2.88;1.08;;;12.50;99.90;;;12.15;100.00;97799.63;4980064;28;20045;-39
2022/05/27 01:05:22;;;;;;;2.33;1.13;;;12.50;99.90;;;12.13;100.00;97798.81;4976562;28;20053;-39
2022/05/27 01:07:57;;;;;;;1.33;1.10;;;12.40;99.90;;;12.09;100.00;97803.38;4974210;28;20034;-39
2022/05/27 01:10:25;;;;;;;1.38;0.90;;;12.40;99.90;;;12.04;100.00;97792.09;4959898;28;20529;-39
2022/05/27 01:13:20;;;;;;;4.72;1.23;;;12.40;99.90;;;12.08;100.00;97800.78;4975894;28;20491;-39
2022/05/27 01:16:21;;;;;;;2.17;1.20;;;12.40;99.90;;;12.06;100.00;97790.28;4953322;28;20041;-40
2022/05/27 01:22:42;;;;;;;3.08;0.98;;;12.40;99.90;;;12.02;100.00;97797.47;4969355;28;21267;-39
2022/05/27 01:26:04;;;;;;;1.63;0.90;;;12.40;99.90;;;12.01;100.00;97789.59;4910958;29;20044;-39
2022/05/27 01:28:44;;;;;;;1.85;1.17;;;12.30;99.90;;;12.00;100.00;97793.97;4969523;28;20478;-40
2022/05/27 01:31:27;;;;;;;4.88;1.08;;;12.30;99.90;;;11.96;100.00;97794.16;4968125;28;20046;-39
2022/05/27 01:34:22;;;;;;;1.45;1.30;;;12.30;99.90;;;11.92;100.00;97788.13;4967360;28;20076;-40
2022/05/27 01:37:12;;;;;;;1.85;1.17;;;12.30;99.90;;;11.91;100.00;97802.25;4974770;28;20030;-39
2022/05/27 01:39:45;;;;;;;2.05;1.20;;;12.30;99.90;;;11.90;100.00;97789.97;4977093;28;20089;-39
2022/05/27 01:42:23;;;;;;;1.73;1.15;;;12.30;99.90;;;11.87;100.00;97795.31;4970004;28;20035;-39
2022/05/27 01:45:28;;;;;;;2.10;0.90;;;12.30;99.90;;;11.88;100.00;97797.06;4949838;28;20151;-39
2022/05/27 01:48:10;;;;;;;2.78;1.10;;;12.20;99.90;;;11.82;100.00;97791.97;4969802;28;20030;-39
2022/05/27 01:50:51;;;;;;;2.90;1.17;;;12.20;99.90;;;11.79;100.00;97785.03;4953601;28;20502;-39
2022/05/27 01:54:07;;;;;;;3.35;1.02;;;12.10;99.90;;;11.79;100.00;97792.97;4970603;28;20026;-40
2022/05/27 01:56:48;;;;;;;1.45;1.20;;;12.10;99.90;;;11.76;100.00;97782.50;4910165;28;20049;-39
2022/05/27 01:59:37;;;;;;;3.95;1.05;;;12.10;99.90;;;11.74;100.00;97779.06;4970618;28;20038;-39
2022/05/27 02:02:17;;;;;;;3.13;1.17;;;12.10;99.90;;;11.72;100.00;97772.97;4950822;28;20033;-39
2022/05/27 02:04:53;;;;;;;3.17;1.30;;;12.10;99.90;;;11.64;100.00;97765.28;4955277;28;20034;-39
2022/05/27 02:07:45;;;;;;;1.88;1.05;;;12.10;99.90;;;11.70;100.00;97774.81;4954296;28;20164;-39
2022/05/27 02:10:49;;;;;;;2.65;1.30;;;12.10;99.90;;;11.65;100.00;97764.38;4965097;28;20073;-39
2022/05/27 02:13:17;;;;;;;1.40;1.17;;;12.00;99.90;;;11.66;100.00;97770.53;4947394;28;20112;-39
2022/05/27 02:15:46;;;;;;;2.20;1.20;;;12.00;99.90;;;11.63;100.00;97771.50;4966142;28;20034;-38
2022/05/27 02:18:38;;;;;;;1.27;1.08;;;12.00;99.90;;;11.60;100.00;97768.09;4954197;28;20053;-38
2022/05/27 02:21:22;;;;;;;1.70;1.10;;;12.00;99.90;;;11.56;100.00;97764.72;4954102;28;21685;-38
2022/05/27 02:23:57;;;;;;;2.42;1.30;;;11.90;99.90;;;11.52;100.00;97765.75;4951064;28;20034;-38
2022/05/27 02:26:30;;;;;;;1.20;1.00;;;11.90;99.90;;;11.53;100.00;97770.09;4967016;28;20034;-38
2022/05/27 02:29:12;;;;;;;1.80;1.10;;;11.90;99.90;;;11.54;100.00;97773.59;4966649;28;20045;-38
2022/05/27 02:31:42;;;;;;;1.90;1.00;;;11.90;99.90;;;11.52;100.00;97772.78;4967456;28;20038;-38
2022/05/27 02:37:27;;;;;;;1.35;1.00;;;11.80;99.90;;;11.45;100.00;97759.81;4971814;28;20372;-39
2022/05/27 02:39:54;;;;;;;2.47;1.33;;;11.80;99.90;;;11.43;100.00;97750.19;4965666;28;20463;-39
2022/05/27 02:42:55;;;;;;;3.03;1.40;;;11.80;99.90;;;11.45;100.00;97749.25;4961580;28;20470;-39
2022/05/27 02:45:31;;;;;;;2.40;1.13;;;11.80;99.90;;;11.47;100.00;97746.56;4942658;28;20207;-39
2022/05/27 02:48:39;;;;;;;1.55;1.20;;;11.80;99.90;;;11.46;100.00;97743.03;4966657;28;20117;-39
2022/05/27 02:51:23;;;;;;;1.58;1.17;;;11.80;99.90;;;11.45;100.00;97740.47;4954367;28;20074;-39
2022/05/27 02:54:43;;;;;;;1.23;1.00;;;11.80;99.90;;;11.43;100.00;97743.16;4969150;28;20716;-39
2022/05/27 02:57:28;;;;;;;1.48;1.10;;;11.80;99.90;;;11.40;100.00;97740.59;4957698;28;20129;-39
2022/05/27 02:59:54;;;;;;;2.63;1.23;;;11.80;99.90;;;11.41;100.00;97752.91;4950171;28;20061;-39
2022/05/27 03:02:21;;;;;;;1.75;1.30;;;11.80;99.90;;;11.48;100.00;97750.91;4949490;28;20471;-39
2022/05/27 03:04:54;;;;;;;2.00;1.17;;;11.80;99.90;;;11.58;100.00;97757.59;4966835;28;20128;-39
2022/05/27 03:07:36;;;;;;;2.05;1.10;;;11.90;99.90;;;11.69;100.00;97749.28;4967397;28;20038;-39
2022/05/27 03:10:29;;;;;;;1.33;1.20;;;12.00;99.90;;;11.77;100.00;97743.72;4970873;28;20168;-39
2022/05/27 03:13:01;;;;;;;2.25;1.02;;;12.10;99.90;;;11.79;100.00;97740.13;4956703;28;20030;-39
2022/05/27 03:16:23;;;;;;;2.13;1.20;;;12.10;99.90;;;11.75;100.00;97737.63;4977944;28;20054;-39
2022/05/27 03:19:23;;;;;;;3.60;1.20;;;12.10;99.90;;;11.72;100.00;97738.63;4961832;28;20038;-39
2022/05/27 03:22:13;;;;;;;1.63;1.38;;;12.10;99.90;;;11.65;100.00;97737.97;4976287;28;20027;-40
2022/05/27 03:25:00;;;;;;;2.47;1.35;;;12.00;99.90;;;11.68;100.00;97738.75;4974672;28;20200;-39
2022/05/27 03:27:57;;;;;;;2.25;1.20;;;12.00;99.90;;;11.84;100.00;97748.75;4955903;28;20034;-40
2022/05/27 03:30:55;;;;;;;1.60;1.10;;;12.20;99.90;;;11.95;100.00;97740.44;4964783;28;20039;-39
2022/05/27 03:33:36;;;;;;;2.20;1.30;;;12.30;99.90;;;12.11;100.00;97745.16;4973456;28;20031;-39
2022/05/27 03:36:38;;;;;;;2.40;1.40;;;12.40;99.90;;;12.23;100.00;97745.53;4978409;28;20052;-39
2022/05/27 03:39:21;;;;;;;2.30;1.38;;;12.60;99.90;;;12.34;100.00;97752.22;4977242;28;20056;-39
2022/05/27 03:42:00;;;;;;;1.80;1.10;;;12.70;99.90;;;12.44;100.00;97758.88;4975855;28;20566;-39
2022/05/27 03:44:27;;;;;;;2.22;1.20;;;12.80;99.90;;;12.51;100.00;97759.50;4960038;28;20413;-39
2022/05/27 03:46:55;;;;;;;2.22;1.00;;;12.90;99.90;;;12.55;100.00;97742.59;4972762;28;20398;-39
2022/05/27 03:49:21;;;;;;;1.98;1.15;;;12.90;99.90;;;12.57;100.00;97746.03;4971545;28;20033;-39
2022/05/27 03:52:07;;;;;;;1.85;1.17;;;13.00;99.90;;;12.66;100.00;97755.41;4973330;28;20035;-40
2022/05/27 03:54:33;;;;;;;2.35;1.33;;;13.00;99.90;;;12.66;100.00;97758.88;4957296;28;20100;-39
2022/05/27 03:57:00;;;;;;;2.75;1.30;;;13.00;99.90;;;12.66;100.00;97755.41;4974251;28;20034;-39
2022/05/27 03:59:26;;;;;;;3.70;1.40;;;13.00;99.90;;;12.77;100.00;97755.81;4972520;28;20392;-37
2022/05/27 04:01:54;;;;;;;2.53;1.42;;;13.10;99.90;;;12.84;100.00;97759.94;4974045;28;20042;-39
2022/05/27 04:04:26;;;;;;;3.03;1.70;;;13.20;99.90;;;12.96;99.57;97766.53;4977728;28;20034;-39
2022/05/27 04:06:52;;;;;;;2.03;1.42;;;13.30;99.90;;;12.98;99.51;97769.97;4974256;28;20305;-39
2022/05/27 04:09:20;;;;;;;4.43;1.50;;;13.30;99.90;;;13.04;98.95;97759.13;4973229;28;20046;-40
2022/05/27 04:11:47;;;;;;;2.30;1.40;;;13.40;99.90;;;13.09;98.10;97761.59;4975966;28;21364;-40
2022/05/27 04:14:13;;;;;;;1.27;1.15;;;13.40;99.90;;;13.10;98.09;97758.88;4975820;28;20040;-39
2022/05/27 04:16:40;;;;;;;4.03;1.40;;;13.40;99.90;;;13.12;97.94;97757.03;4976735;28;20034;-39
2022/05/27 04:19:08;;;;;;;2.47;1.42;;;13.40;99.90;;;13.14;97.38;97755.19;4977128;28;20038;-40
2022/05/27 04:21:35;;;;;;;1.10;1.00;;;13.50;99.90;;;13.15;97.45;97756.03;4974329;28;20655;-39
2022/05/27 04:24:01;;;;;;;2.28;1.20;;;13.40;99.90;;;13.21;97.64;97754.91;4976739;28;20033;-39
2022/05/27 04:26:27;;;;;;;3.35;1.50;;;13.50;99.90;;;13.18;97.54;97756.75;4959432;28;20050;-39
2022/05/27 04:28:53;;;;;;;3.30;1.33;;;13.50;99.90;;;13.21;97.70;97761.09;4976624;28;20421;-36
2022/05/27 04:31:19;;;;;;;1.70;1.20;;;13.50;99.90;;;13.22;97.95;97759.28;4976181;28;20045;-37
2022/05/27 04:33:45;;;;;;;2.30;1.48;;;13.50;99.90;;;13.26;98.81;97752.94;4977097;28;20857;-37
2022/05/27 04:36:11;;;;;;;3.28;1.40;;;13.50;99.90;;;13.41;98.63;97756.78;4976975;28;20550;-34
2022/05/27 04:38:38;;;;;;;1.85;1.40;;;13.70;99.90;;;13.55;97.91;97763.19;4990104;22;20050;-38
2022/05/27 04:41:04;;;;;;;7.38;1.70;;;13.80;99.90;;;13.65;96.87;97755.69;4976475;28;20034;-38
2022/05/27 04:43:30;;;;;;;2.95;1.55;;;13.90;99.90;;;13.75;95.74;97759.66;4977308;28;20545;-39
2022/05/27 04:45:56;;;;;;;2.55;1.60;;;14.00;99.90;;;13.82;94.53;97754.97;4976078;28;20038;-39
2022/05/27 04:48:22;;;;;;;2.17;1.42;;;14.10;99.90;;;13.82;94.41;97757.63;4977595;28;20117;-39
2022/05/27 04:50:48;;;;;;;2.75;1.55;;;14.10;99.90;;;13.78;94.32;97748.06;4974564;28;20429;-38
2022/05/27 04:53:14;;;;;;;3.28;1.60;;;14.00;99.90;;;13.72;94.63;97757.16;4975797;28;20904;-38
2022/05/27 04:55:42;;;;;;;2.78;1.45;;;14.00;99.90;;;13.70;95.69;97759.00;4976579;28;20030;-39
2022/05/27 04:58:11;;;;;;;2.72;1.55;;;14.00;99.90;;;13.80;94.97;97753.28;4969993;28;20030;-39
2022/05/27 05:00:44;;;;;;;2.97;1.60;;;14.10;99.90;;;13.99;94.00;97756.84;4963915;28;20029;-39
2022/05/27 05:03:11;;;;;;;3.05;1.45;;;14.20;99.90;;;14.11;93.91;97771.38;4968041;28;20156;-38
2022/05/27 05:05:37;;;;;;;1.92;1.45;;;14.40;99.90;;;14.23;93.04;97768.16;4976092;28;20090;-38
2022/05/27 05:08:17;;;;;;;2.00;1.60;;;14.50;99.90;;;14.28;93.40;97766.16;4972274;28;20042;-39
2022/05/27 05:10:43;;;;;;;2.72;1.75;;;14.60;99.90;;;14.36;92.21;97770.25;4956363;28;20061;-38
2022/05/27 05:13:08;;;;;;;2.95;1.55;;;14.60;99.90;;;14.46;91.80;97774.16;4967294;28;20498;-39
2022/05/27 05:15:34;;;;;;;1.92;1.20;;;14.70;99.90;;;14.42;91.44;97751.38;4975075;28;20686;-38
2022/05/27 05:18:00;;;;;;;3.08;1.60;;;14.80;99.90;;;14.60;90.22;97781.53;4969056;28;20487;-39
2022/05/27 05:20:30;;;;;;;2.53;1.40;;;14.90;99.90;;;14.68;89.92;97780.25;4977161;28;20069;-39
2022/05/27 05:22:55;;;;;;;1.85;1.50;;;15.00;99.90;;;14.73;89.93;97781.81;4973468;28;20030;-39
2022/05/27 05:25:23;;;;;;;2.67;1.50;;;15.00;99.90;;;14.75;89.39;97779.94;4978260;28;20072;-39
2022/05/27 05:27:49;;;;;;;2.63;1.70;;;15.00;99.90;;;14.76;89.33;97779.00;4973860;28;20125;-39
2022/05/27 05:30:20;;;;;;;2.97;1.70;;;15.00;99.90;;;14.78;89.68;97775.34;4974566;28;20465;-39
2022/05/27 05:32:46;;;;;;;3.90;1.75;;;15.10;99.90;;;14.82;90.14;97778.72;4975863;28;20041;-39
2022/05/27 05:35:13;;;;;;;5.40;1.73;;;15.20;99.90;;;14.84;90.07;97782.16;4976364;28;20034;-39
2022/05/27 05:37:39;;;;;;;2.35;1.40;;;15.10;99.90;;;14.89;89.77;97783.66;4975176;28;20672;-39
2022/05/27 05:40:07;;;;;;;3.00;1.60;;;15.20;99.90;;;14.91;89.10;97788.88;4973841;28;20068;-39
2022/05/27 05:42:32;;;;;;;3.67;1.70;;;15.20;99.90;;;14.76;89.15;97769.25;4976799;28;20038;-39
2022/05/27 05:44:59;;;;;;;4.05;1.63;;;15.20;99.90;;;14.75;89.96;97778.16;4975270;28;20045;-39
2022/05/27 05:47:25;;;;;;;2.53;1.65;;;15.20;99.90;;;14.85;89.92;97791.84;4974207;28;20214;-38
2022/05/27 05:49:51;;;;;;;2.40;1.50;;;15.20;99.90;;;14.84;89.63;97792.75;4973101;28;20110;-39
2022/05/27 05:52:17;;;;;;;1.35;1.20;;;15.20;99.90;;;14.84;90.12;97787.44;4974393;28;20117;-39
2022/05/27 05:54:43;;;;;;;1.92;1.38;;;15.10;99.90;;;14.81;90.03;97783.16;4971670;28;20087;-38
2022/05/27 05:57:09;;;;;;;1.73;1.40;;;15.20;99.90;;;14.87;90.65;97774.03;4973071;28;20030;-38
2022/05/27 05:59:38;;;;;;;4.15;1.40;;;15.20;99.90;;;14.92;90.62;97781.78;4971705;28;20034;-39
2022/05/27 06:02:04;;;;;;;1.67;1.50;;;15.20;99.90;;;14.98;90.54;97786.78;4973049;28;20128;-38
2022/05/27 06:04:30;;;;;;;3.60;1.73;;;15.20;99.90;;;15.05;90.37;97781.09;4975796;28;20065;-39
2022/05/27 06:06:57;;;;;;;2.10;1.58;;;15.30;99.90;;;15.07;89.88;97784.56;4975490;28;20078;-39
2022/05/27 06:09:25;;;;;;;4.38;1.70;;;15.40;99.90;;;15.16;90.30;97787.69;4973914;28;20096;-39
2022/05/27 06:11:56;;;;;;;3.80;1.58;;;15.40;99.90;;;15.21;89.89;97783.88;4976465;28;20367;-39
2022/05/27 06:14:22;;;;;;;2.47;1.55;;;15.50;99.90;;;15.27;90.43;97790.66;4975799;28;20038;-38
2022/05/27 06:16:48;;;;;;;2.40;1.48;;;15.50;99.90;;;15.26;89.03;97792.47;4971226;28;20034;-39
2022/05/27 06:19:14;;;;;;;2.35;1.63;;;15.60;99.90;;;15.31;89.08;97784.28;4973890;28;20031;-39
2022/05/27 06:21:40;;;;;;;2.60;1.48;;;15.60;99.90;;;15.33;89.82;97782.41;4957599;28;20072;-39
2022/05/27 06:24:06;;;;;;;2.55;1.83;;;15.60;99.90;;;15.37;89.19;97788.44;4974339;28;20033;-39
2022/05/27 06:26:32;;;;;;;1.83;1.40;;;15.70;99.90;;;15.40;89.61;97791.78;4976374;28;20042;-39
2022/05/27 06:34:27;;;;;;;3.17;1.50;;;15.80;99.90;;;15.41;89.71;97777.56;4974541;28;20327;-39
2022/05/27 06:37:01;;;;;;;3.55;1.65;;;15.80;99.90;;;15.38;89.69;97792.78;4973790;28;20113;-39
2022/05/27 06:39:28;;;;;;;3.17;1.80;;;15.70;99.90;;;15.38;91.42;97788.34;4971580;28;20061;-38
2022/05/27 06:41:55;;;;;;;2.58;1.52;;;15.70;99.90;;;15.42;92.51;97792.56;4975710;28;20026;-39
2022/05/27 06:44:21;;;;;;;2.67;1.70;;;15.70;99.90;;;15.41;91.73;97806.78;4971660;28;20042;-39
2022/05/27 06:46:51;;;;;;;2.78;1.60;;;15.80;99.90;;;15.46;91.37;97802.09;4974960;28;20049;-39
2022/05/27 06:49:18;;;;;;;4.18;1.95;;;15.80;99.90;;;15.44;91.98;97795.16;4971845;28;20035;-39
2022/05/27 06:51:45;;;;;;;3.53;2.20;;;15.80;99.90;;;15.42;91.01;97802.34;4971158;28;20109;-39
2022/05/27 06:54:11;;;;;;;3.42;2.08;;;15.80;99.90;;;15.48;90.73;97812.66;4965540;28;20045;-39
2022/05/27 06:56:38;;;;;;;4.15;2.20;;;15.80;99.90;;;15.48;89.79;97802.03;4964198;28;20038;-39
2022/05/27 06:59:06;;;;;;;5.10;1.75;;;15.90;99.90;;;15.60;90.43;97803.22;4969896;28;20463;-38
2022/05/27 07:01:32;;;;;;;5.00;2.10;;;16.00;99.90;;;15.65;89.20;97809.16;4969446;28;20101;-39
2022/05/27 07:03:58;;;;;;;3.95;2.10;;;16.10;99.90;;;15.67;88.74;97799.31;4969603;28;20034;-39
2022/05/27 07:06:31;;;;;;;4.28;2.00;;;16.10;99.90;;;15.81;89.62;97809.28;4971331;28;20049;-38
2022/05/27 07:08:56;;;;;;;4.40;1.45;;;16.20;99.90;;;15.90;88.68;97794.63;4970172;28;20026;-39
2022/05/27 07:11:23;;;;;;;2.17;1.52;;;16.20;99.90;;;15.89;87.75;97803.56;4971420;28;20034;-38
2022/05/27 07:13:48;;;;;;;5.53;1.90;;;16.30;99.90;;;15.93;85.60;97799.78;4962849;28;20116;-38
2022/05/27 07:16:14;;;;;;;3.83;1.95;;;16.40;99.90;;;16.06;85.03;97792.91;4966433;28;20490;-39
2022/05/27 07:18:40;;;;;;;2.17;1.40;;;16.50;99.90;;;16.27;86.43;97800.66;4969888;28;20088;-38
2022/05/27 07:21:07;;;;;;;3.05;1.77;;;16.60;99.90;;;16.37;83.26;97801.91;4973445;28;20450;-38
2022/05/27 07:23:33;;;;;;;3.10;1.80;;;16.80;99.90;;;16.21;83.03;97802.72;4969314;28;20069;-38
2022/05/27 07:26:00;;;;;;;2.75;1.58;;;16.70;99.90;;;16.16;82.68;97798.59;4969907;28;20057;-38
2022/05/27 07:28:26;;;;;;;3.80;1.83;;;16.70;99.90;;;15.98;83.71;97795.09;4973476;28;20031;-38
2022/05/27 07:30:53;;;;;;;4.53;2.08;;;16.60;99.90;;;15.97;83.04;97796.00;4965626;28;20038;-38
2022/05/27 07:33:20;;;;;;;1.95;1.35;;;16.40;99.90;;;15.88;86.49;97802.69;4962253;28;20177;-38
2022/05/27 07:35:46;;;;;;;5.43;1.80;;;16.40;99.90;;;15.78;83.17;97794.31;4967903;28;20037;-38
2022/05/27 07:38:12;;;;;;;4.72;1.83;;;16.30;99.90;;;15.75;85.58;97796.28;4966897;28;20022;-38
2022/05/27 07:40:39;;;;;;;4.97;2.00;;;16.20;99.90;;;15.59;84.70;97794.38;4971537;28;20030;-37
2022/05/27 07:43:08;;;;;;;4.93;1.95;;;16.10;99.90;;;15.56;85.34;97798.97;4973863;28;20035;-37
2022/05/27 07:45:37;;;;;;;2.45;1.65;;;16.00;99.90;;;15.48;85.64;97812.66;4969264;28;20057;-37
2022/05/27 07:48:04;;;;;;;3.78;1.70;;;15.90;99.90;;;15.38;86.11;97806.06;4958640;28;20034;-38
2022/05/27 07:50:30;;;;;;;2.75;1.70;;;15.90;99.90;;;15.38;87.78;97812.28;4965562;28;20093;-37
2022/05/27 07:52:56;;;;;;;4.88;1.60;;;15.80;99.90;;;15.38;89.05;97820.25;4975542;28;20026;-36
2022/05/27 07:55:22;;;;;;;2.75;1.70;;;15.80;99.90;;;15.42;87.13;97807.66;4964915;28;20593;-36
2022/05/27 07:57:48;;;;;;;6.75;1.90;;;15.80;99.90;;;15.37;86.98;97810.53;4970329;28;20054;-37
2022/05/27 08:00:28;;;;;;;6.40;2.42;;;15.80;99.90;;;15.60;88.62;97801.41;4965628;28;20456;-37
2022/05/27 08:02:54;;;;;;;3.90;2.03;;;16.00;99.90;;;15.64;85.20;97810.09;4971627;28;20030;-37
2022/05/27 08:05:24;;;;;;;3.28;1.73;;;16.10;99.90;;;15.78;85.74;97807.63;4966216;28;20114;-37
2022/05/27 08:07:51;;;;;;;3.38;1.58;;;16.20;99.90;;;15.92;85.16;97808.72;4968463;28;20499;-37
2022/05/27 08:10:21;;;;;;;2.45;1.35;;;16.30;99.90;;;16.07;84.34;97802.59;4968767;28;20164;-38
2022/05/27 08:12:47;;;;;;;3.50;1.70;;;16.30;99.90;;;16.12;84.19;97808.53;4972316;28;20225;-37
2022/05/27 08:15:13;;;;;;;3.83;1.40;;;16.40;99.90;;;16.15;84.20;97805.72;4967813;28;20031;-37
2022/05/27 08:17:40;;;;;;;3.22;1.50;;;16.50;99.90;;;16.17;85.14;97811.81;4975150;28;20093;-38
2022/05/27 08:20:09;;;;;;;3.40;1.63;;;16.50;99.90;;;16.14;86.27;97805.78;4974373;28;20149;-38
2022/05/27 08:22:35;;;;;;;3.30;1.40;;;16.50;99.90;;;16.10;86.44;97809.56;4969676;28;20035;-39
2022/05/27 08:25:02;;;;;;;4.80;1.67;;;16.40;99.90;;;16.02;86.66;97812.59;4968139;28;20245;-38
2022/05/27 08:27:28;;;;;;;3.58;1.60;;;16.40;99.90;;;15.86;87.78;97806.38;4973789;28;20027;-38
2022/05/27 08:29:54;;;;;;;2.80;1.90;;;16.30;99.90;;;15.77;88.68;97805.03;4958048;28;20035;-39
2022/05/27 08:32:20;;;;;;;5.15;1.73;;;16.20;99.90;;;15.78;86.60;97810.28;4972863;28;20046;-39
2022/05/27 08:40:43;;;;;;;3.85;1.58;;;16.40;99.90;;;16.18;87.12;97812.66;4960554;28;20137;-38
2022/05/27 08:43:18;;;;;;;3.28;1.50;;;16.60;99.90;;;16.17;85.44;97821.59;4972857;28;20038;-38
2022/05/27 08:46:18;;;;;;;3.40;1.75;;;16.70;99.90;;;16.37;81.47;97823.19;4953616;28;20046;-38
2022/05/27 08:48:46;;;;;;;3.25;1.60;;;16.80;99.90;;;16.49;82.21;97827.88;4972506;28;20045;-38
2022/05/27 08:51:29;;;;;;;2.88;1.58;;;16.90;99.90;;;16.59;82.05;97830.88;4971382;28;20031;-38
2022/05/27 08:54:17;;;;;;;;;;;17.00;99.90;;;16.75;84.41;97822.91;4968459;28;20041;-38
2022/05/27 08:59:49;;;;;;;2.83;1.48;;;17.20;99.90;;;16.97;79.64;97823.44;4958897;28;20112;-39
2022/05/27 09:02:34;;;;;;;2.53;1.50;;;17.40;99.90;;;17.33;78.51;97829.44;4974460;28;20089;-38
2022/05/27 09:05:28;;;;;;;3.13;1.52;;;17.70;99.90;;;17.46;75.01;97818.91;4971847;28;20046;-38
2022/05/27 09:08:02;;;;;;;3.97;1.65;;;17.90;99.90;;;17.60;75.27;97829.66;4974445;28;20073;-38
2022/05/27 09:10:50;;;;;;;2.92;1.60;;;18.10;99.90;;;17.64;74.35;97828.53;4975406;28;20030;-38
2022/05/27 09:13:35;;;;;;;3.55;1.38;;;18.20;99.90;;;17.61;71.13;97818.03;4955201;28;20018;-38
2022/05/27 09:16:28;;;;;;;4.10;1.88;;;18.20;99.90;;;17.77;71.99;97827.81;4954010;28;21911;-38
2022/05/27 09:19:13;;;;;;;3.25;1.92;;;18.30;99.90;;;18.19;71.24;97815.53;4944083;28;20414;-38
2022/05/27 09:22:17;;;;;;;3.38;1.70;;;18.60;99.90;;;18.26;68.43;97815.03;4955131;28;20037;-38
2022/05/27 09:25:28;;;;;;;3.53;1.52;;;18.90;99.90;;;18.42;69.99;97806.94;4953341;28;20038;-38
2022/05/27 09:28:29;;;;;;;3.53;1.70;;;19.00;99.90;;;18.40;65.91;97805.34;4967121;28;20065;-38
2022/05/27 09:30:57;;;;;;;2.70;1.65;;;19.10;99.90;;;18.64;66.48;97808.28;4969956;28;20113;-38
2022/05/27 09:33:26;;;;;;;1.48;1.02;;;19.20;99.90;;;18.86;65.36;97814.00;4952972;28;20060;-38
2022/05/27 09:36:09;;;;;;;3.75;1.42;;;19.40;99.90;;;19.22;67.24;97817.94;4955270;28;20315;-38
2022/05/27 09:38:46;;;;;;;2.05;1.35;;;19.70;99.90;;;19.25;61.98;97809.69;4972199;28;20076;-38
2022/05/27 09:41:37;;;;;;;2.20;1.60;;;19.90;99.90;;;18.99;62.70;97821.25;4967407;28;20030;-38
2022/05/27 09:44:24;;;;;;;3.45;1.30;;;19.70;99.90;;;18.80;62.77;97813.50;4969150;28;20069;-38
2022/05/27 09:46:51;;;;;;;2.28;1.40;;;19.50;99.90;;;18.79;61.98;97814.44;4939116;28;20038;-38
2022/05/27 09:49:17;;;;;;;3.25;1.35;;;19.40;99.90;;;18.73;62.86;97813.03;4971407;28;20034;-38
2022/05/27 09:51:42;;;;;;;1.67;1.17;;;19.30;99.90;;;18.63;66.80;97817.25;4973085;28;20068;-38
2022/05/27 09:54:46;;;;;;;3.03;1.40;;;19.30;99.90;;;18.55;63.27;97815.03;4973455;28;20038;-38
2022/05/27 09:57:11;;;;;;;2.38;1.20;;;19.20;99.90;;;18.34;62.02;97811.94;4945474;28;20038;-38
2022/05/27 09:59:47;;;;;;;2.17;1.00;;;19.10;99.90;;;18.67;64.03;97798.25;4968991;28;20486;-38
2022/05/27 10:02:36;;;;;;;2.92;1.42;;;19.30;99.90;;;18.94;59.31;97802.81;4972517;28;20026;-38
2022/05/27 10:05:23;;;;;;;4.38;1.35;;;19.50;99.90;;;19.12;57.80;97807.94;4961636;28;20486;-38
2022/05/27 10:07:57;;;;;;;1.70;1.10;;;19.70;99.80;;;19.18;57.08;97794.16;4968471;28;20038;-39
2022/05/27 10:11:10;;;;;;;1.85;1.27;;;19.70;98.80;;;19.26;60.63;97787.34;5087179;27;20761;-38
2022/05/27 10:13:36;;;;;;;1.35;1.02;;;19.70;99.90;;;19.07;58.58;97786.84;5059373;28;20415;-38
2022/05/27 10:16:27;;;;;;;1.63;1.10;;;19.70;99.90;;;19.35;58.16;97780.53;5077436;28;20078;-38
2022/05/27 10:19:13;;;;;;;4.13;1.20;;;19.80;99.90;;;19.73;56.40;97771.78;5040424;28;20700;-38
2022/05/27 10:21:55;;;;;;;2.63;1.30;;;20.20;99.80;;;20.09;56.52;97772.88;5052417;28;20047;-38
2022/05/27 10:24:36;;;;;;;3.17;1.42;;;20.60;98.90;;;20.44;53.68;97782.06;5023513;28;20037;-39
2022/05/27 10:27:09;;;;;;;2.75;1.30;;;20.90;98.20;;;20.04;52.64;97772.31;5050308;28;20364;-38
2022/05/27 10:29:55;;;;;;;2.67;1.35;;;20.90;96.00;;;20.12;53.86;97769.97;5054692;28;20028;-38
2022/05/27 10:32:34;;;;;;;4.78;1.35;;;20.80;97.00;;;20.33;54.71;97774.78;5054106;28;20036;-38
2022/05/27 10:35:04;;;;;;;3.83;1.80;;;20.80;97.90;;;20.66;53.20;97773.41;5043747;28;20028;-38
2022/05/27 10:37:47;;;;;;;2.10;1.60;;;21.10;97.20;;;20.87;52.67;97761.13;5052415;28;20024;-38
2022/05/27 10:40:33;;;;;;;1.85;1.23;;;21.40;97.00;;;20.52;50.98;97766.31;5047589;28;20082;-38
2022/05/27 10:43:44;;;;;;;2.22;1.40;;;21.30;93.70;;;20.11;50.23;97764.72;5075645;28;20139;-38
2022/05/27 10:46:15;;;;;;;2.72;1.20;;;20.80;94.00;;;20.02;51.04;97758.19;5044277;22;20046;-39
2022/05/27 10:48:58;;;;;;;1.77;1.02;;;20.50;94.50;;;19.72;54.54;97764.69;5000694;28;20119;-38
2022/05/27 10:51:48;;;;;;;3.58;0.95;;;20.20;96.40;;;19.22;52.31;97758.22;5021027;28;20033;-39
2022/05/27 10:54:44;;;;;;;4.18;1.10;;;19.90;95.10;;;18.80;52.56;97754.72;4996564;28;22814;-39
2022/05/27 11:04:11;;;;;;;1.10;0.90;;;19.00;97.70;;;18.51;57.99;97757.44;4983570;28;20064;-39
2022/05/27 11:07:14;;;;;;;1.30;0.90;;;18.90;97.90;;;18.64;57.45;97761.03;4976228;28;20049;-39
2022/05/27 11:10:17;;;;;;;1.10;0.90;;;19.00;98.30;;;18.73;58.07;97754.25;4986765;28;20060;-43
2022/05/27 11:16:55;;;;;;;3.65;1.00;;;19.10;97.80;;;19.06;56.24;97753.91;4972851;28;20045;-42
2022/05/27 11:19:49;;;;;;;3.15;1.10;;;19.40;98.50;;;19.31;58.68;97748.75;4997900;28;20053;-44
2022/05/27 11:22:37;;;;;;;1.05;0.90;;;19.50;98.80;;;19.29;54.97;97756.00;4964839;28;20038;-47